sensor_id;sensor_type;location;lat;lon;timestamp;P1;durP1;ratioP1;P2;durP2;ratioP2
26113;SDS011;13966;48.828;9.064;2023-08-31T00:02:15;5.60;;;2.40;;
26113;SDS011;13966;48.828;9.064;2023-08-31T00:04:41;4.85;;;2.00;;
26113;SDS011;13966;48.828;9.064;2023-08-31T00:07:07;2.90;;;1.85;;
26113;SDS011;13966;48.828;9.064;2023-08-31T00:09:33;4.72;;;2.65;;
26113;SDS011;13966;48.828;9.064;2023-08-31T00:12:00;4.47;;;2.20;;
26113;SDS011;13966;48.828;9.064;2023-08-31T00:14:27;4.65;;;2.22;;
26113;SDS011;13966;48.828;9.064;2023-08-31T00:16:53;4.82;;;2.65;;
26113;SDS011;13966;48.828;9.064;2023-08-31T00:19:22;5.60;;;2.30;;
26113;SDS011;13966;48.828;9.064;2023-08-31T00:21:48;5.57;;;2.33;;
26113;SDS011;13966;48.828;9.064;2023-08-31T00:24:14;6.32;;;2.70;;
26113;SDS011;13966;48.828;9.064;2023-08-31T00:26:40;9.80;;;2.78;;
26113;SDS011;13966;48.828;9.064;2023-08-31T00:29:10;3.58;;;2.45;;
26113;SDS011;13966;48.828;9.064;2023-08-31T00:31:36;10.75;;;3.15;;
26113;SDS011;13966;48.828;9.064;2023-08-31T00:34:02;3.53;;;2.30;;
26113;SDS011;13966;48.828;9.064;2023-08-31T00:36:31;4.20;;;2.67;;
26113;SDS011;13966;48.828;9.064;2023-08-31T00:38:57;8.88;;;2.92;;
26113;SDS011;13966;48.828;9.064;2023-08-31T00:41:23;2.95;;;2.15;;
26113;SDS011;13966;48.828;9.064;2023-08-31T00:43:49;5.03;;;2.60;;
26113;SDS011;13966;48.828;9.064;2023-08-31T00:46:15;5.68;;;2.50;;
26113;SDS011;13966;48.828;9.064;2023-08-31T00:48:41;5.45;;;2.55;;
26113;SDS011;13966;48.828;9.064;2023-08-31T00:51:07;5.13;;;2.45;;
26113;SDS011;13966;48.828;9.064;2023-08-31T00:53:35;4.78;;;3.28;;
26113;SDS011;13966;48.828;9.064;2023-08-31T00:56:01;4.00;;;2.80;;
26113;SDS011;13966;48.828;9.064;2023-08-31T00:58:28;5.88;;;2.92;;
26113;SDS011;13966;48.828;9.064;2023-08-31T01:01:00;6.53;;;3.15;;
26113;SDS011;13966;48.828;9.064;2023-08-31T01:03:35;7.07;;;2.85;;
26113;SDS011;13966;48.828;9.064;2023-08-31T01:08:52;7.82;;;3.08;;
26113;SDS011;13966;48.828;9.064;2023-08-31T01:11:34;9.63;;;3.53;;
26113;SDS011;13966;48.828;9.064;2023-08-31T01:14:19;6.97;;;3.20;;
26113;SDS011;13966;48.828;9.064;2023-08-31T01:16:49;4.88;;;3.53;;
26113;SDS011;13966;48.828;9.064;2023-08-31T01:19:29;8.00;;;3.65;;
26113;SDS011;13966;48.828;9.064;2023-08-31T01:21:57;8.65;;;3.60;;
26113;SDS011;13966;48.828;9.064;2023-08-31T01:24:25;4.38;;;3.20;;
26113;SDS011;13966;48.828;9.064;2023-08-31T01:26:51;10.25;;;3.03;;
26113;SDS011;13966;48.828;9.064;2023-08-31T01:29:17;10.27;;;3.72;;
26113;SDS011;13966;48.828;9.064;2023-08-31T01:31:44;4.53;;;3.20;;
26113;SDS011;13966;48.828;9.064;2023-08-31T01:34:10;7.10;;;3.45;;
26113;SDS011;13966;48.828;9.064;2023-08-31T01:36:37;5.68;;;3.33;;
26113;SDS011;13966;48.828;9.064;2023-08-31T01:41:36;10.60;;;3.53;;
26113;SDS011;13966;48.828;9.064;2023-08-31T01:44:04;4.97;;;3.35;;
26113;SDS011;13966;48.828;9.064;2023-08-31T01:46:31;5.57;;;3.30;;
26113;SDS011;13966;48.828;9.064;2023-08-31T01:48:57;6.50;;;3.33;;
26113;SDS011;13966;48.828;9.064;2023-08-31T01:51:23;10.48;;;3.88;;
26113;SDS011;13966;48.828;9.064;2023-08-31T01:53:49;6.28;;;3.15;;
26113;SDS011;13966;48.828;9.064;2023-08-31T01:56:15;6.03;;;3.17;;
26113;SDS011;13966;48.828;9.064;2023-08-31T01:58:41;5.07;;;3.00;;
26113;SDS011;13966;48.828;9.064;2023-08-31T02:01:07;5.28;;;2.88;;
26113;SDS011;13966;48.828;9.064;2023-08-31T02:03:33;6.95;;;3.10;;
26113;SDS011;13966;48.828;9.064;2023-08-31T02:05:59;5.90;;;2.83;;
26113;SDS011;13966;48.828;9.064;2023-08-31T02:08:25;7.47;;;3.17;;
26113;SDS011;13966;48.828;9.064;2023-08-31T02:10:51;7.57;;;3.03;;
26113;SDS011;13966;48.828;9.064;2023-08-31T02:13:19;4.15;;;2.80;;
26113;SDS011;13966;48.828;9.064;2023-08-31T02:15:45;4.43;;;2.83;;
26113;SDS011;13966;48.828;9.064;2023-08-31T02:18:11;4.47;;;3.13;;
26113;SDS011;13966;48.828;9.064;2023-08-31T02:20:37;7.10;;;3.03;;
26113;SDS011;13966;48.828;9.064;2023-08-31T02:23:03;5.78;;;2.90;;
26113;SDS011;13966;48.828;9.064;2023-08-31T02:25:30;4.07;;;2.90;;
26113;SDS011;13966;48.828;9.064;2023-08-31T02:27:56;4.07;;;2.90;;
26113;SDS011;13966;48.828;9.064;2023-08-31T02:30:22;5.43;;;3.05;;
26113;SDS011;13966;48.828;9.064;2023-08-31T02:32:48;5.80;;;2.70;;
26113;SDS011;13966;48.828;9.064;2023-08-31T02:35:14;4.47;;;3.20;;
26113;SDS011;13966;48.828;9.064;2023-08-31T02:37:40;4.47;;;2.95;;
26113;SDS011;13966;48.828;9.064;2023-08-31T02:40:06;6.68;;;2.80;;
26113;SDS011;13966;48.828;9.064;2023-08-31T02:42:33;3.85;;;3.00;;
26113;SDS011;13966;48.828;9.064;2023-08-31T02:44:59;5.53;;;2.95;;
26113;SDS011;13966;48.828;9.064;2023-08-31T02:47:26;3.55;;;2.50;;
26113;SDS011;13966;48.828;9.064;2023-08-31T02:49:52;4.18;;;2.92;;
26113;SDS011;13966;48.828;9.064;2023-08-31T02:52:18;5.78;;;3.38;;
26113;SDS011;13966;48.828;9.064;2023-08-31T02:54:44;6.43;;;3.13;;
26113;SDS011;13966;48.828;9.064;2023-08-31T02:57:10;6.88;;;3.05;;
26113;SDS011;13966;48.828;9.064;2023-08-31T02:59:36;4.80;;;2.80;;
26113;SDS011;13966;48.828;9.064;2023-08-31T03:02:02;5.68;;;2.35;;
26113;SDS011;13966;48.828;9.064;2023-08-31T03:04:28;4.35;;;2.55;;
26113;SDS011;13966;48.828;9.064;2023-08-31T03:06:54;7.10;;;2.90;;
26113;SDS011;13966;48.828;9.064;2023-08-31T03:09:20;3.65;;;2.72;;
26113;SDS011;13966;48.828;9.064;2023-08-31T03:11:46;4.10;;;2.80;;
26113;SDS011;13966;48.828;9.064;2023-08-31T03:14:12;6.43;;;2.72;;
26113;SDS011;13966;48.828;9.064;2023-08-31T03:16:38;5.78;;;2.63;;
26113;SDS011;13966;48.828;9.064;2023-08-31T03:19:05;4.57;;;2.63;;
26113;SDS011;13966;48.828;9.064;2023-08-31T03:21:32;5.93;;;2.75;;
26113;SDS011;13966;48.828;9.064;2023-08-31T03:23:57;5.22;;;2.95;;
26113;SDS011;13966;48.828;9.064;2023-08-31T03:26:23;3.50;;;2.70;;
26113;SDS011;13966;48.828;9.064;2023-08-31T03:28:49;5.32;;;2.67;;
26113;SDS011;13966;48.828;9.064;2023-08-31T03:31:15;6.30;;;2.40;;
26113;SDS011;13966;48.828;9.064;2023-08-31T03:33:41;6.93;;;3.13;;
26113;SDS011;13966;48.828;9.064;2023-08-31T03:36:07;5.80;;;2.72;;
26113;SDS011;13966;48.828;9.064;2023-08-31T03:38:33;5.63;;;2.92;;
26113;SDS011;13966;48.828;9.064;2023-08-31T03:41:03;2.47;;;2.13;;
26113;SDS011;13966;48.828;9.064;2023-08-31T03:43:29;4.82;;;2.72;;
26113;SDS011;13966;48.828;9.064;2023-08-31T03:45:59;5.35;;;2.85;;
26113;SDS011;13966;48.828;9.064;2023-08-31T03:48:25;6.70;;;3.00;;
26113;SDS011;13966;48.828;9.064;2023-08-31T03:50:51;6.32;;;2.58;;
26113;SDS011;13966;48.828;9.064;2023-08-31T03:53:18;5.78;;;2.90;;
26113;SDS011;13966;48.828;9.064;2023-08-31T03:55:44;6.47;;;2.75;;
26113;SDS011;13966;48.828;9.064;2023-08-31T03:58:10;5.18;;;3.20;;
26113;SDS011;13966;48.828;9.064;2023-08-31T04:00:36;8.18;;;3.05;;
26113;SDS011;13966;48.828;9.064;2023-08-31T04:03:03;6.60;;;2.97;;
26113;SDS011;13966;48.828;9.064;2023-08-31T04:05:32;6.82;;;2.92;;
26113;SDS011;13966;48.828;9.064;2023-08-31T04:07:59;4.05;;;2.90;;
26113;SDS011;13966;48.828;9.064;2023-08-31T04:10:25;5.82;;;2.78;;
26113;SDS011;13966;48.828;9.064;2023-08-31T04:12:51;5.70;;;2.88;;
26113;SDS011;13966;48.828;9.064;2023-08-31T04:15:17;4.57;;;3.08;;
26113;SDS011;13966;48.828;9.064;2023-08-31T04:17:43;3.38;;;2.55;;
26113;SDS011;13966;48.828;9.064;2023-08-31T04:20:10;4.93;;;2.95;;
26113;SDS011;13966;48.828;9.064;2023-08-31T04:22:36;4.45;;;2.50;;
26113;SDS011;13966;48.828;9.064;2023-08-31T04:25:02;4.57;;;2.75;;
26113;SDS011;13966;48.828;9.064;2023-08-31T04:27:28;8.45;;;3.10;;
26113;SDS011;13966;48.828;9.064;2023-08-31T04:30:00;3.50;;;2.95;;
26113;SDS011;13966;48.828;9.064;2023-08-31T04:32:27;5.03;;;3.33;;
26113;SDS011;13966;48.828;9.064;2023-08-31T04:34:53;8.52;;;3.42;;
26113;SDS011;13966;48.828;9.064;2023-08-31T04:37:20;6.03;;;3.22;;
26113;SDS011;13966;48.828;9.064;2023-08-31T04:39:47;7.05;;;3.10;;
26113;SDS011;13966;48.828;9.064;2023-08-31T04:42:13;5.70;;;3.30;;
26113;SDS011;13966;48.828;9.064;2023-08-31T04:44:41;4.45;;;2.78;;
26113;SDS011;13966;48.828;9.064;2023-08-31T04:47:07;6.10;;;2.65;;
26113;SDS011;13966;48.828;9.064;2023-08-31T04:49:33;5.28;;;3.10;;
26113;SDS011;13966;48.828;9.064;2023-08-31T04:51:59;4.68;;;2.65;;
26113;SDS011;13966;48.828;9.064;2023-08-31T04:54:25;6.47;;;3.05;;
26113;SDS011;13966;48.828;9.064;2023-08-31T04:56:51;6.90;;;3.30;;
26113;SDS011;13966;48.828;9.064;2023-08-31T04:59:17;5.20;;;3.30;;
26113;SDS011;13966;48.828;9.064;2023-08-31T05:01:43;3.00;;;2.70;;
26113;SDS011;13966;48.828;9.064;2023-08-31T05:04:09;4.88;;;2.80;;
26113;SDS011;13966;48.828;9.064;2023-08-31T05:06:35;6.15;;;2.90;;
26113;SDS011;13966;48.828;9.064;2023-08-31T05:09:01;5.50;;;2.80;;
26113;SDS011;13966;48.828;9.064;2023-08-31T05:11:27;8.63;;;2.83;;
26113;SDS011;13966;48.828;9.064;2023-08-31T05:13:54;5.78;;;3.25;;
26113;SDS011;13966;48.828;9.064;2023-08-31T05:16:19;10.50;;;3.20;;
26113;SDS011;13966;48.828;9.064;2023-08-31T05:18:45;7.13;;;3.00;;
26113;SDS011;13966;48.828;9.064;2023-08-31T05:21:11;5.97;;;2.85;;
26113;SDS011;13966;48.828;9.064;2023-08-31T05:23:37;4.88;;;2.88;;
26113;SDS011;13966;48.828;9.064;2023-08-31T05:26:03;5.97;;;3.35;;
26113;SDS011;13966;48.828;9.064;2023-08-31T05:28:29;8.80;;;3.05;;
26113;SDS011;13966;48.828;9.064;2023-08-31T05:30:56;6.30;;;3.00;;
26113;SDS011;13966;48.828;9.064;2023-08-31T05:33:25;7.32;;;3.30;;
26113;SDS011;13966;48.828;9.064;2023-08-31T05:35:53;4.72;;;2.78;;
26113;SDS011;13966;48.828;9.064;2023-08-31T05:38:19;4.93;;;2.88;;
26113;SDS011;13966;48.828;9.064;2023-08-31T05:40:45;7.03;;;3.28;;
26113;SDS011;13966;48.828;9.064;2023-08-31T05:43:12;6.40;;;3.20;;
26113;SDS011;13966;48.828;9.064;2023-08-31T05:45:38;11.02;;;3.10;;
26113;SDS011;13966;48.828;9.064;2023-08-31T05:48:04;6.70;;;3.13;;
26113;SDS011;13966;48.828;9.064;2023-08-31T05:50:30;4.72;;;3.00;;
26113;SDS011;13966;48.828;9.064;2023-08-31T05:52:56;7.30;;;2.92;;
26113;SDS011;13966;48.828;9.064;2023-08-31T05:55:22;8.38;;;3.30;;
26113;SDS011;13966;48.828;9.064;2023-08-31T05:57:48;5.43;;;3.03;;
26113;SDS011;13966;48.828;9.064;2023-08-31T06:00:15;8.10;;;3.40;;
26113;SDS011;13966;48.828;9.064;2023-08-31T06:02:41;8.25;;;2.65;;
26113;SDS011;13966;48.828;9.064;2023-08-31T06:05:09;6.95;;;3.20;;
26113;SDS011;13966;48.828;9.064;2023-08-31T06:07:37;8.80;;;2.83;;
26113;SDS011;13966;48.828;9.064;2023-08-31T06:10:03;5.35;;;2.80;;
26113;SDS011;13966;48.828;9.064;2023-08-31T06:12:30;5.28;;;2.65;;
26113;SDS011;13966;48.828;9.064;2023-08-31T06:14:56;10.73;;;3.17;;
26113;SDS011;13966;48.828;9.064;2023-08-31T06:17:22;10.05;;;2.70;;
26113;SDS011;13966;48.828;9.064;2023-08-31T06:19:48;6.15;;;2.85;;
26113;SDS011;13966;48.828;9.064;2023-08-31T06:22:14;7.22;;;2.58;;
26113;SDS011;13966;48.828;9.064;2023-08-31T06:24:40;5.72;;;2.58;;
26113;SDS011;13966;48.828;9.064;2023-08-31T06:27:07;6.82;;;2.67;;
26113;SDS011;13966;48.828;9.064;2023-08-31T06:29:33;9.55;;;2.40;;
26113;SDS011;13966;48.828;9.064;2023-08-31T06:31:59;5.72;;;2.30;;
26113;SDS011;13966;48.828;9.064;2023-08-31T06:34:25;4.90;;;2.20;;
26113;SDS011;13966;48.828;9.064;2023-08-31T06:36:51;5.38;;;2.13;;
26113;SDS011;13966;48.828;9.064;2023-08-31T06:39:17;7.43;;;2.08;;
26113;SDS011;13966;48.828;9.064;2023-08-31T06:41:43;8.68;;;2.70;;
26113;SDS011;13966;48.828;9.064;2023-08-31T06:44:09;8.65;;;2.28;;
26113;SDS011;13966;48.828;9.064;2023-08-31T06:46:35;6.57;;;2.25;;
26113;SDS011;13966;48.828;9.064;2023-08-31T06:49:03;7.65;;;2.30;;
26113;SDS011;13966;48.828;9.064;2023-08-31T06:51:32;6.53;;;2.13;;
26113;SDS011;13966;48.828;9.064;2023-08-31T06:53:59;9.60;;;2.33;;
26113;SDS011;13966;48.828;9.064;2023-08-31T06:56:31;9.30;;;2.13;;
26113;SDS011;13966;48.828;9.064;2023-08-31T06:58:57;5.40;;;2.50;;
26113;SDS011;13966;48.828;9.064;2023-08-31T07:01:23;4.43;;;2.40;;
26113;SDS011;13966;48.828;9.064;2023-08-31T07:03:49;4.90;;;2.17;;
26113;SDS011;13966;48.828;9.064;2023-08-31T07:06:16;8.90;;;2.38;;
26113;SDS011;13966;48.828;9.064;2023-08-31T07:08:42;6.70;;;2.50;;
26113;SDS011;13966;48.828;9.064;2023-08-31T07:11:10;7.15;;;2.00;;
26113;SDS011;13966;48.828;9.064;2023-08-31T07:13:36;5.75;;;2.30;;
26113;SDS011;13966;48.828;9.064;2023-08-31T07:16:02;7.07;;;2.33;;
26113;SDS011;13966;48.828;9.064;2023-08-31T07:18:28;4.53;;;1.90;;
26113;SDS011;13966;48.828;9.064;2023-08-31T07:20:54;3.38;;;2.00;;
26113;SDS011;13966;48.828;9.064;2023-08-31T07:23:20;5.07;;;2.13;;
26113;SDS011;13966;48.828;9.064;2023-08-31T07:25:46;13.13;;;2.33;;
26113;SDS011;13966;48.828;9.064;2023-08-31T07:28:12;6.28;;;2.45;;
26113;SDS011;13966;48.828;9.064;2023-08-31T07:30:38;5.25;;;2.00;;
26113;SDS011;13966;48.828;9.064;2023-08-31T07:33:04;3.28;;;1.70;;
26113;SDS011;13966;48.828;9.064;2023-08-31T07:35:30;5.47;;;2.25;;
26113;SDS011;13966;48.828;9.064;2023-08-31T07:37:56;7.15;;;2.00;;
26113;SDS011;13966;48.828;9.064;2023-08-31T07:40:22;5.43;;;2.33;;
26113;SDS011;13966;48.828;9.064;2023-08-31T07:42:48;5.93;;;2.00;;
26113;SDS011;13966;48.828;9.064;2023-08-31T07:45:16;3.95;;;1.77;;
26113;SDS011;13966;48.828;9.064;2023-08-31T07:47:42;5.13;;;2.00;;
26113;SDS011;13966;48.828;9.064;2023-08-31T07:50:08;6.47;;;2.08;;
26113;SDS011;13966;48.828;9.064;2023-08-31T07:52:34;5.00;;;2.10;;
26113;SDS011;13966;48.828;9.064;2023-08-31T07:55:00;5.72;;;1.80;;
26113;SDS011;13966;48.828;9.064;2023-08-31T07:57:26;7.82;;;2.13;;
26113;SDS011;13966;48.828;9.064;2023-08-31T07:59:52;4.55;;;1.85;;
26113;SDS011;13966;48.828;9.064;2023-08-31T08:02:18;2.78;;;1.50;;
26113;SDS011;13966;48.828;9.064;2023-08-31T08:04:47;5.95;;;1.90;;
26113;SDS011;13966;48.828;9.064;2023-08-31T08:07:13;3.03;;;1.45;;
26113;SDS011;13966;48.828;9.064;2023-08-31T08:09:40;6.80;;;1.80;;
26113;SDS011;13966;48.828;9.064;2023-08-31T08:12:06;3.88;;;1.70;;
26113;SDS011;13966;48.828;9.064;2023-08-31T08:14:32;4.72;;;1.75;;
26113;SDS011;13966;48.828;9.064;2023-08-31T08:16:59;5.10;;;2.30;;
26113;SDS011;13966;48.828;9.064;2023-08-31T08:19:25;5.10;;;1.88;;
26113;SDS011;13966;48.828;9.064;2023-08-31T08:21:51;3.72;;;2.00;;
26113;SDS011;13966;48.828;9.064;2023-08-31T08:24:17;3.15;;;1.85;;
26113;SDS011;13966;48.828;9.064;2023-08-31T08:26:43;5.07;;;2.08;;
26113;SDS011;13966;48.828;9.064;2023-08-31T08:29:09;6.13;;;1.77;;
26113;SDS011;13966;48.828;9.064;2023-08-31T08:31:35;4.30;;;1.85;;
26113;SDS011;13966;48.828;9.064;2023-08-31T08:34:01;3.92;;;1.77;;
26113;SDS011;13966;48.828;9.064;2023-08-31T08:36:28;6.15;;;1.80;;
26113;SDS011;13966;48.828;9.064;2023-08-31T08:38:54;5.20;;;1.83;;
26113;SDS011;13966;48.828;9.064;2023-08-31T08:41:23;8.65;;;2.20;;
26113;SDS011;13966;48.828;9.064;2023-08-31T08:43:50;5.25;;;1.60;;
26113;SDS011;13966;48.828;9.064;2023-08-31T08:46:17;4.85;;;1.83;;
26113;SDS011;13966;48.828;9.064;2023-08-31T08:48:44;4.30;;;1.90;;
26113;SDS011;13966;48.828;9.064;2023-08-31T08:51:10;4.22;;;1.60;;
26113;SDS011;13966;48.828;9.064;2023-08-31T08:53:37;7.32;;;2.03;;
26113;SDS011;13966;48.828;9.064;2023-08-31T08:56:04;10.38;;;2.30;;
26113;SDS011;13966;48.828;9.064;2023-08-31T08:58:30;6.60;;;2.05;;
26113;SDS011;13966;48.828;9.064;2023-08-31T09:00:56;4.80;;;2.05;;
26113;SDS011;13966;48.828;9.064;2023-08-31T09:03:22;3.83;;;1.85;;
26113;SDS011;13966;48.828;9.064;2023-08-31T09:05:49;3.63;;;1.77;;
26113;SDS011;13966;48.828;9.064;2023-08-31T09:08:16;6.57;;;1.67;;
26113;SDS011;13966;48.828;9.064;2023-08-31T09:10:42;7.82;;;2.50;;
26113;SDS011;13966;48.828;9.064;2023-08-31T09:13:09;4.22;;;1.90;;
26113;SDS011;13966;48.828;9.064;2023-08-31T09:15:43;4.88;;;1.90;;
26113;SDS011;13966;48.828;9.064;2023-08-31T09:18:14;5.90;;;2.30;;
26113;SDS011;13966;48.828;9.064;2023-08-31T09:20:44;7.93;;;2.55;;
26113;SDS011;13966;48.828;9.064;2023-08-31T09:23:10;4.80;;;1.90;;
26113;SDS011;13966;48.828;9.064;2023-08-31T09:25:42;4.47;;;2.10;;
26113;SDS011;13966;48.828;9.064;2023-08-31T09:28:09;4.60;;;1.60;;
26113;SDS011;13966;48.828;9.064;2023-08-31T09:30:36;5.15;;;1.83;;
26113;SDS011;13966;48.828;9.064;2023-08-31T09:33:03;4.30;;;1.70;;
26113;SDS011;13966;48.828;9.064;2023-08-31T09:35:29;5.50;;;1.90;;
26113;SDS011;13966;48.828;9.064;2023-08-31T09:37:55;5.57;;;1.80;;
26113;SDS011;13966;48.828;9.064;2023-08-31T09:40:24;4.63;;;1.85;;
26113;SDS011;13966;48.828;9.064;2023-08-31T09:42:50;2.33;;;1.50;;
26113;SDS011;13966;48.828;9.064;2023-08-31T09:45:17;9.15;;;1.70;;
26113;SDS011;13966;48.828;9.064;2023-08-31T09:47:43;3.30;;;1.55;;
26113;SDS011;13966;48.828;9.064;2023-08-31T09:50:09;3.67;;;1.48;;
26113;SDS011;13966;48.828;9.064;2023-08-31T09:52:35;6.80;;;1.92;;
26113;SDS011;13966;48.828;9.064;2023-08-31T09:55:03;3.47;;;1.40;;
26113;SDS011;13966;48.828;9.064;2023-08-31T09:57:29;3.88;;;1.73;;
26113;SDS011;13966;48.828;9.064;2023-08-31T09:59:57;4.43;;;1.77;;
26113;SDS011;13966;48.828;9.064;2023-08-31T10:02:23;3.95;;;1.85;;
26113;SDS011;13966;48.828;9.064;2023-08-31T10:04:49;3.58;;;1.67;;
26113;SDS011;13966;48.828;9.064;2023-08-31T10:07:17;5.25;;;1.65;;
26113;SDS011;13966;48.828;9.064;2023-08-31T10:09:44;4.70;;;1.80;;
26113;SDS011;13966;48.828;9.064;2023-08-31T10:12:10;6.43;;;2.00;;
26113;SDS011;13966;48.828;9.064;2023-08-31T10:14:36;5.78;;;1.67;;
26113;SDS011;13966;48.828;9.064;2023-08-31T10:17:03;3.65;;;1.38;;
26113;SDS011;13966;48.828;9.064;2023-08-31T10:19:29;2.78;;;1.73;;
26113;SDS011;13966;48.828;9.064;2023-08-31T10:21:55;6.53;;;2.20;;
26113;SDS011;13966;48.828;9.064;2023-08-31T10:24:59;5.47;;;1.92;;
26113;SDS011;13966;48.828;9.064;2023-08-31T10:27:18;4.18;;;1.60;;
26113;SDS011;13966;48.828;9.064;2023-08-31T10:29:44;4.82;;;2.00;;
26113;SDS011;13966;48.828;9.064;2023-08-31T10:32:10;8.10;;;1.83;;
26113;SDS011;13966;48.828;9.064;2023-08-31T10:34:36;3.83;;;1.92;;
26113;SDS011;13966;48.828;9.064;2023-08-31T10:37:02;3.78;;;1.50;;
26113;SDS011;13966;48.828;9.064;2023-08-31T10:39:37;5.65;;;1.88;;
26113;SDS011;13966;48.828;9.064;2023-08-31T10:42:03;12.52;;;1.90;;
26113;SDS011;13966;48.828;9.064;2023-08-31T10:44:32;5.70;;;2.08;;
26113;SDS011;13966;48.828;9.064;2023-08-31T10:47:02;6.78;;;1.83;;
26113;SDS011;13966;48.828;9.064;2023-08-31T10:49:29;6.68;;;1.90;;
26113;SDS011;13966;48.828;9.064;2023-08-31T10:52:14;7.97;;;1.88;;
26113;SDS011;13966;48.828;9.064;2023-08-31T10:54:41;7.18;;;1.90;;
26113;SDS011;13966;48.828;9.064;2023-08-31T10:57:07;6.68;;;2.20;;
26113;SDS011;13966;48.828;9.064;2023-08-31T10:59:48;3.20;;;1.70;;
26113;SDS011;13966;48.828;9.064;2023-08-31T11:02:36;8.23;;;2.35;;
26113;SDS011;13966;48.828;9.064;2023-08-31T11:07:35;9.85;;;2.40;;
26113;SDS011;13966;48.828;9.064;2023-08-31T11:10:17;6.05;;;1.88;;
26113;SDS011;13966;48.828;9.064;2023-08-31T11:12:45;4.93;;;1.98;;
26113;SDS011;13966;48.828;9.064;2023-08-31T11:15:12;6.57;;;1.77;;
26113;SDS011;13966;48.828;9.064;2023-08-31T11:17:39;5.57;;;1.95;;
26113;SDS011;13966;48.828;9.064;2023-08-31T11:20:05;6.05;;;1.85;;
26113;SDS011;13966;48.828;9.064;2023-08-31T11:22:34;7.65;;;2.13;;
26113;SDS011;13966;48.828;9.064;2023-08-31T11:25:00;8.10;;;2.20;;
26113;SDS011;13966;48.828;9.064;2023-08-31T11:27:26;4.57;;;2.00;;
26113;SDS011;13966;48.828;9.064;2023-08-31T11:29:52;7.15;;;2.35;;
26113;SDS011;13966;48.828;9.064;2023-08-31T11:32:18;7.03;;;2.05;;
26113;SDS011;13966;48.828;9.064;2023-08-31T11:34:44;4.78;;;1.63;;
26113;SDS011;13966;48.828;9.064;2023-08-31T11:37:13;5.28;;;1.80;;
26113;SDS011;13966;48.828;9.064;2023-08-31T11:39:51;3.92;;;1.80;;
26113;SDS011;13966;48.828;9.064;2023-08-31T11:42:17;3.22;;;1.50;;
26113;SDS011;13966;48.828;9.064;2023-08-31T11:44:45;3.75;;;1.48;;
26113;SDS011;13966;48.828;9.064;2023-08-31T11:47:11;4.78;;;1.95;;
26113;SDS011;13966;48.828;9.064;2023-08-31T11:49:39;6.25;;;2.10;;
26113;SDS011;13966;48.828;9.064;2023-08-31T11:52:05;6.10;;;1.85;;
26113;SDS011;13966;48.828;9.064;2023-08-31T11:54:31;6.00;;;1.90;;
26113;SDS011;13966;48.828;9.064;2023-08-31T11:56:57;6.40;;;2.22;;
26113;SDS011;13966;48.828;9.064;2023-08-31T11:59:23;3.47;;;1.70;;
26113;SDS011;13966;48.828;9.064;2023-08-31T12:01:50;5.75;;;1.90;;
26113;SDS011;13966;48.828;9.064;2023-08-31T12:04:22;5.72;;;1.85;;
26113;SDS011;13966;48.828;9.064;2023-08-31T12:06:51;5.45;;;2.08;;
26113;SDS011;13966;48.828;9.064;2023-08-31T12:09:18;5.40;;;1.90;;
26113;SDS011;13966;48.828;9.064;2023-08-31T12:11:49;5.72;;;1.83;;
26113;SDS011;13966;48.828;9.064;2023-08-31T12:14:19;7.80;;;2.20;;
26113;SDS011;13966;48.828;9.064;2023-08-31T12:16:46;4.88;;;1.98;;
26113;SDS011;13966;48.828;9.064;2023-08-31T12:19:12;4.22;;;1.92;;
26113;SDS011;13966;48.828;9.064;2023-08-31T12:21:38;6.82;;;2.10;;
26113;SDS011;13966;48.828;9.064;2023-08-31T12:24:04;6.00;;;2.13;;
26113;SDS011;13966;48.828;9.064;2023-08-31T12:26:31;4.60;;;1.80;;
26113;SDS011;13966;48.828;9.064;2023-08-31T12:28:57;4.35;;;1.88;;
26113;SDS011;13966;48.828;9.064;2023-08-31T12:31:24;7.57;;;1.63;;
26113;SDS011;13966;48.828;9.064;2023-08-31T12:33:50;4.53;;;1.92;;
26113;SDS011;13966;48.828;9.064;2023-08-31T12:36:16;3.85;;;1.40;;
26113;SDS011;13966;48.828;9.064;2023-08-31T12:38:42;3.40;;;1.50;;
26113;SDS011;13966;48.828;9.064;2023-08-31T12:41:08;4.63;;;1.83;;
26113;SDS011;13966;48.828;9.064;2023-08-31T12:43:34;4.63;;;1.55;;
26113;SDS011;13966;48.828;9.064;2023-08-31T12:46:00;5.07;;;1.98;;
26113;SDS011;13966;48.828;9.064;2023-08-31T12:48:29;3.28;;;1.90;;
26113;SDS011;13966;48.828;9.064;2023-08-31T12:50:55;4.03;;;1.70;;
26113;SDS011;13966;48.828;9.064;2023-08-31T12:53:22;5.32;;;1.80;;
26113;SDS011;13966;48.828;9.064;2023-08-31T12:55:48;5.30;;;2.08;;
26113;SDS011;13966;48.828;9.064;2023-08-31T12:58:15;7.18;;;2.08;;
26113;SDS011;13966;48.828;9.064;2023-08-31T13:00:41;4.28;;;1.40;;
26113;SDS011;13966;48.828;9.064;2023-08-31T13:03:08;6.63;;;2.00;;
26113;SDS011;13966;48.828;9.064;2023-08-31T13:05:34;5.40;;;1.88;;
26113;SDS011;13966;48.828;9.064;2023-08-31T13:08:00;4.53;;;1.80;;
26113;SDS011;13966;48.828;9.064;2023-08-31T13:10:26;5.90;;;1.65;;
26113;SDS011;13966;48.828;9.064;2023-08-31T13:12:52;3.97;;;1.63;;
26113;SDS011;13966;48.828;9.064;2023-08-31T13:15:19;4.47;;;1.50;;
26113;SDS011;13966;48.828;9.064;2023-08-31T13:17:45;4.13;;;1.42;;
26113;SDS011;13966;48.828;9.064;2023-08-31T13:20:11;3.10;;;1.52;;
26113;SDS011;13966;48.828;9.064;2023-08-31T13:22:37;3.05;;;1.52;;
26113;SDS011;13966;48.828;9.064;2023-08-31T13:25:04;2.45;;;1.50;;
26113;SDS011;13966;48.828;9.064;2023-08-31T13:27:30;2.50;;;1.60;;
26113;SDS011;13966;48.828;9.064;2023-08-31T13:29:58;3.10;;;1.67;;
26113;SDS011;13966;48.828;9.064;2023-08-31T13:32:24;3.10;;;1.73;;
26113;SDS011;13966;48.828;9.064;2023-08-31T13:34:50;4.13;;;1.80;;
26113;SDS011;13966;48.828;9.064;2023-08-31T13:37:18;2.95;;;1.70;;
26113;SDS011;13966;48.828;9.064;2023-08-31T13:39:44;2.88;;;1.67;;
26113;SDS011;13966;48.828;9.064;2023-08-31T13:42:11;5.55;;;1.80;;
26113;SDS011;13966;48.828;9.064;2023-08-31T13:44:37;5.10;;;1.73;;
26113;SDS011;13966;48.828;9.064;2023-08-31T13:47:03;3.35;;;1.50;;
26113;SDS011;13966;48.828;9.064;2023-08-31T13:49:30;3.33;;;1.70;;
26113;SDS011;13966;48.828;9.064;2023-08-31T13:51:56;5.25;;;1.83;;
26113;SDS011;13966;48.828;9.064;2023-08-31T13:54:22;3.90;;;1.85;;
26113;SDS011;13966;48.828;9.064;2023-08-31T13:56:48;3.35;;;1.88;;
26113;SDS011;13966;48.828;9.064;2023-08-31T13:59:16;4.85;;;1.90;;
26113;SDS011;13966;48.828;9.064;2023-08-31T14:01:42;7.15;;;2.00;;
26113;SDS011;13966;48.828;9.064;2023-08-31T14:04:08;6.60;;;1.80;;
26113;SDS011;13966;48.828;9.064;2023-08-31T14:06:34;4.57;;;1.80;;
26113;SDS011;13966;48.828;9.064;2023-08-31T14:09:01;3.03;;;1.73;;
26113;SDS011;13966;48.828;9.064;2023-08-31T14:11:27;5.20;;;1.70;;
26113;SDS011;13966;48.828;9.064;2023-08-31T14:14:03;6.05;;;2.03;;
26113;SDS011;13966;48.828;9.064;2023-08-31T14:16:30;6.68;;;2.20;;
26113;SDS011;13966;48.828;9.064;2023-08-31T14:18:56;4.53;;;1.98;;
26113;SDS011;13966;48.828;9.064;2023-08-31T14:21:22;4.65;;;1.90;;
26113;SDS011;13966;48.828;9.064;2023-08-31T14:23:48;4.82;;;2.10;;
26113;SDS011;13966;48.828;9.064;2023-08-31T14:26:14;5.15;;;2.00;;
26113;SDS011;13966;48.828;9.064;2023-08-31T14:28:40;5.97;;;1.88;;
26113;SDS011;13966;48.828;9.064;2023-08-31T14:31:08;4.38;;;2.30;;
26113;SDS011;13966;48.828;9.064;2023-08-31T14:33:34;5.93;;;1.90;;
26113;SDS011;13966;48.828;9.064;2023-08-31T14:36:00;3.40;;;1.92;;
26113;SDS011;13966;48.828;9.064;2023-08-31T14:38:27;7.22;;;2.00;;
26113;SDS011;13966;48.828;9.064;2023-08-31T14:40:54;7.60;;;2.03;;
26113;SDS011;13966;48.828;9.064;2023-08-31T14:43:20;6.00;;;2.00;;
26113;SDS011;13966;48.828;9.064;2023-08-31T14:45:47;5.90;;;1.98;;
26113;SDS011;13966;48.828;9.064;2023-08-31T14:48:13;5.50;;;1.85;;
26113;SDS011;13966;48.828;9.064;2023-08-31T14:50:42;5.82;;;2.15;;
26113;SDS011;13966;48.828;9.064;2023-08-31T14:53:09;3.50;;;1.70;;
26113;SDS011;13966;48.828;9.064;2023-08-31T14:55:36;5.25;;;1.83;;